Time;durP1;ratioP1;P1;durP2;ratioP2;P2;SDS_P1;SDS_P2;PMS_P1;PMS_P2;Temp;Humidity;BMP_temperature;BMP_pressure;BME280_temperature;BME280_humidity;BME280_pressure;Samples;Min_cycle;Max_cycle;Signal;HPM_P1;HPM_P2
2023/03/07 00:01:33;;;;;;;10.00;6.07;;;;;;;;;;5077713;28;20237;-61
2023/03/07 00:04:01;;;;;;;9.80;6.40;;;;;;;;;;5081020;28;20271;-62
2023/03/07 00:06:29;;;;;;;12.23;7.13;;;;;;;;;;5080898;28;20206;-62
2023/03/07 00:08:58;;;;;;;10.43;6.40;;;;;;;;;;5080565;28;20236;-61
2023/03/07 00:11:26;;;;;;;9.37;6.10;;;;;;;;;;5080983;28;20244;-62
2023/03/07 00:13:55;;;;;;;12.50;7.27;;;;;;;;;;5080977;28;20214;-61
2023/03/07 00:16:24;;;;;;;12.50;7.03;;;;;;;;;;5080878;28;20209;-61
2023/03/07 00:18:52;;;;;;;10.57;6.37;;;;;;;;;;5080953;28;20206;-61
2023/03/07 00:21:20;;;;;;;11.60;6.30;;;;;;;;;;5080426;28;20733;-61
2023/03/07 00:23:48;;;;;;;7.77;6.33;;;;;;;;;;5080591;28;20717;-61
2023/03/07 00:26:18;;;;;;;9.53;6.70;;;;;;;;;;5080917;28;20206;-62
2023/03/07 00:28:46;;;;;;;9.80;6.57;;;;;;;;;;5080485;28;20293;-61
2023/03/07 00:31:16;;;;;;;9.27;6.63;;;;;;;;;;5080287;28;20237;-62
2023/03/07 00:33:44;;;;;;;9.13;6.77;;;;;;;;;;5080720;28;20202;-61
2023/03/07 00:36:14;;;;;;;10.67;6.97;;;;;;;;;;5080049;28;20206;-61
2023/03/07 00:38:42;;;;;;;9.20;7.20;;;;;;;;;;5080660;28;20210;-61
2023/03/07 00:41:11;;;;;;;11.43;6.70;;;;;;;;;;5080228;28;20296;-62
2023/03/07 00:43:39;;;;;;;9.83;7.50;;;;;;;;;;5080597;28;20214;-62
2023/03/07 00:46:07;;;;;;;8.77;6.40;;;;;;;;;;5080299;28;20212;-61
2023/03/07 00:48:37;;;;;;;9.33;6.80;;;;;;;;;;5080189;28;20264;-61
2023/03/07 00:51:06;;;;;;;9.60;6.97;;;;;;;;;;5079963;28;20344;-62
2023/03/07 00:53:35;;;;;;;9.67;6.07;;;;;;;;;;5080318;28;20211;-61
2023/03/07 00:56:04;;;;;;;11.07;6.77;;;;;;;;;;5079990;28;20341;-62
2023/03/07 00:58:33;;;;;;;13.17;5.90;;;;;;;;;;5080744;28;20240;-62
2023/03/07 01:01:01;;;;;;;10.80;6.10;;;;;;;;;;5080038;28;20265;-62
2023/03/07 01:03:32;;;;;;;9.33;6.30;;;;;;;;;;5079869;28;20689;-62
2023/03/07 01:06:04;;;;;;;11.97;7.77;;;;;;;;;;5079581;28;20202;-62
2023/03/07 01:08:32;;;;;;;8.90;6.60;;;;;;;;;;5079803;28;20320;-60
2023/03/07 01:11:01;;;;;;;8.80;6.43;;;;;;;;;;5079787;28;20234;-62
2023/03/07 01:13:29;;;;;;;9.93;5.90;;;;;;;;;;5079463;28;20246;-62
2023/03/07 01:16:06;;;;;;;8.70;6.60;;;;;;;;;;5079833;28;20206;-62
2023/03/07 01:18:34;;;;;;;8.83;6.10;;;;;;;;;;5079813;28;20210;-62
2023/03/07 01:21:10;;;;;;;9.27;6.07;;;;;;;;;;5079243;28;20256;-62
2023/03/07 01:23:38;;;;;;;10.43;6.40;;;;;;;;;;5079694;28;20285;-62
2023/03/07 01:26:05;;;;;;;10.27;7.07;;;;;;;;;;5079430;28;20321;-62
2023/03/07 01:28:33;;;;;;;10.10;6.17;;;;;;;;;;5079364;28;20649;-62
2023/03/07 01:31:02;;;;;;;9.20;6.00;;;;;;;;;;5079048;28;20307;-62
2023/03/07 01:33:32;;;;;;;8.53;6.27;;;;;;;;;;5079225;28;20233;-62
2023/03/07 01:35:59;;;;;;;8.67;6.17;;;;;;;;;;5079084;28;20721;-62
2023/03/07 01:38:32;;;;;;;9.00;5.70;;;;;;;;;;5079519;28;20220;-62
2023/03/07 01:41:01;;;;;;;10.70;6.10;;;;;;;;;;5078914;28;20222;-62
2023/03/07 01:43:29;;;;;;;9.60;6.30;;;;;;;;;;5079351;28;20206;-62
2023/03/07 01:46:25;;;;;;;14.67;7.77;;;;;;;;;;5079251;28;20202;-61
2023/03/07 01:48:55;;;;;;;10.40;6.97;;;;;;;;;;5078927;28;20296;-62
2023/03/07 01:51:23;;;;;;;10.83;7.47;;;;;;;;;;5078841;28;20309;-62
2023/03/07 01:53:53;;;;;;;9.73;6.77;;;;;;;;;;5078878;28;20278;-62
2023/03/07 01:56:21;;;;;;;6.97;6.03;;;;;;;;;;5078750;28;20238;-62
2023/03/07 01:58:50;;;;;;;10.87;6.17;;;;;;;;;;5078787;28;20284;-62
2023/03/07 02:01:18;;;;;;;9.23;6.57;;;;;;;;;;5078528;28;20226;-61
2023/03/07 02:03:49;;;;;;;12.90;7.10;;;;;;;;;;5078933;28;20217;-62
2023/03/07 02:06:17;;;;;;;11.60;6.50;;;;;;;;;;5065542;28;20214;-62
2023/03/07 02:08:46;;;;;;;13.67;8.77;;;;;;;;;;5078407;28;20278;-62
2023/03/07 02:11:15;;;;;;;15.27;9.83;;;;;;;;;;5078665;28;20237;-61
2023/03/07 02:13:43;;;;;;;18.93;10.73;;;;;;;;;;5078703;28;20214;-62
2023/03/07 02:16:11;;;;;;;18.60;12.23;;;;;;;;;;5078416;28;20661;-61
2023/03/07 02:18:42;;;;;;;17.57;10.97;;;;;;;;;;5078547;28;20210;-61
2023/03/07 02:21:12;;;;;;;19.83;12.93;;;;;;;;;;5078360;28;20309;-61
2023/03/07 02:23:43;;;;;;;19.37;11.90;;;;;;;;;;5078366;28;20206;-62
2023/03/07 02:26:14;;;;;;;20.03;12.87;;;;;;;;;;5078119;28;20217;-61
2023/03/07 02:28:44;;;;;;;18.50;12.23;;;;;;;;;;5078164;28;20293;-61
2023/03/07 02:31:12;;;;;;;20.13;12.37;;;;;;;;;;5077976;28;20268;-61
2023/03/07 02:33:40;;;;;;;18.90;12.07;;;;;;;;;;5078090;28;20251;-62
2023/03/07 02:36:09;;;;;;;20.20;11.40;;;;;;;;;;5078159;28;20225;-62
2023/03/07 02:38:38;;;;;;;23.10;12.93;;;;;;;;;;5078045;28;20298;-61
2023/03/07 02:41:07;;;;;;;19.10;12.07;;;;;;;;;;5078102;28;20304;-61
2023/03/07 02:43:35;;;;;;;20.07;11.73;;;;;;;;;;5078070;28;20256;-62
2023/03/07 02:46:04;;;;;;;18.33;11.47;;;;;;;;;;5077893;28;20206;-62
2023/03/07 02:48:32;;;;;;;19.00;11.33;;;;;;;;;;5078384;28;20240;-62
2023/03/07 02:51:00;;;;;;;17.40;10.83;;;;;;;;;;5077805;28;20234;-61
2023/03/07 02:53:28;;;;;;;22.33;12.03;;;;;;;;;;5077927;28;20214;-61
2023/03/07 02:55:56;;;;;;;18.27;11.73;;;;;;;;;;5077943;28;20213;-61
2023/03/07 02:58:24;;;;;;;25.23;10.70;;;;;;;;;;5078145;28;20207;-61
2023/03/07 03:00:52;;;;;;;21.83;12.07;;;;;;;;;;5077562;28;20264;-61
2023/03/07 03:03:21;;;;;;;24.30;11.73;;;;;;;;;;5077784;28;20718;-61
2023/03/07 03:05:50;;;;;;;19.87;11.13;;;;;;;;;;5077713;28;20209;-62
2023/03/07 03:08:17;;;;;;;19.53;11.40;;;;;;;;;;5077619;28;20265;-62
2023/03/07 03:10:45;;;;;;;20.47;11.13;;;;;;;;;;5077826;28;20230;-62
2023/03/07 03:13:13;;;;;;;22.90;11.80;;;;;;;;;;5077868;28;20258;-62
2023/03/07 03:15:41;;;;;;;20.53;12.03;;;;;;;;;;5077509;28;20213;-62
2023/03/07 03:18:10;;;;;;;19.97;11.20;;;;;;;;;;5077803;28;20210;-62
2023/03/07 03:20:40;;;;;;;19.27;11.03;;;;;;;;;;5077770;28;20233;-61
2023/03/07 03:23:08;;;;;;;18.43;11.23;;;;;;;;;;5077453;28;20681;-62
2023/03/07 03:25:37;;;;;;;21.00;11.90;;;;;;;;;;5077514;28;20213;-61
2023/03/07 03:28:07;;;;;;;17.70;10.07;;;;;;;;;;5077892;28;20210;-62
2023/03/07 03:30:35;;;;;;;21.50;11.30;;;;;;;;;;5077401;28;20230;-62
2023/03/07 03:33:03;;;;;;;18.00;10.33;;;;;;;;;;5077386;28;20312;-62
2023/03/07 03:35:32;;;;;;;19.30;10.07;;;;;;;;;;5078317;28;20206;-61
2023/03/07 03:38:01;;;;;;;21.47;11.57;;;;;;;;;;5081510;28;20210;-62
2023/03/07 03:40:32;;;;;;;18.83;11.13;;;;;;;;;;5081218;28;20256;-62
2023/03/07 03:43:00;;;;;;;16.90;10.57;;;;;;;;;;5081681;28;20226;-61
2023/03/07 03:45:29;;;;;;;20.43;10.37;;;;;;;;;;5081470;28;20217;-62
2023/03/07 03:47:57;;;;;;;16.30;10.40;;;;;;;;;;5081153;28;20673;-62
2023/03/07 03:50:25;;;;;;;17.93;9.87;;;;;;;;;;5081465;28;20309;-61
2023/03/07 03:52:53;;;;;;;17.80;10.20;;;;;;;;;;5080863;28;20252;-62
2023/03/07 03:55:22;;;;;;;19.27;10.23;;;;;;;;;;5081227;28;20214;-62
2023/03/07 03:57:50;;;;;;;17.10;10.10;;;;;;;;;;5081106;28;20210;-61
2023/03/07 04:00:19;;;;;;;15.27;9.50;;;;;;;;;;5081330;28;20230;-62
2023/03/07 04:02:47;;;;;;;13.77;9.20;;;;;;;;;;5081111;28;20232;-61
2023/03/07 04:05:16;;;;;;;17.40;10.27;;;;;;;;;;5081169;28;20206;-62
2023/03/07 04:07:44;;;;;;;15.17;9.27;;;;;;;;;;5080583;28;20642;-61
2023/03/07 04:10:12;;;;;;;16.87;9.83;;;;;;;;;;5080901;28;20689;-62
2023/03/07 04:12:42;;;;;;;17.73;10.07;;;;;;;;;;5081122;28;20230;-62
2023/03/07 04:15:11;;;;;;;15.93;10.20;;;;;;;;;;5080725;28;20731;-62
2023/03/07 04:17:39;;;;;;;19.80;9.63;;;;;;;;;;5080638;28;20260;-62
2023/03/07 04:20:13;;;;;;;15.50;9.33;;;;;;;;;;5080875;28;20222;-62
2023/03/07 04:22:41;;;;;;;22.07;10.83;;;;;;;;;;5080467;28;20233;-62
2023/03/07 04:25:09;;;;;;;19.67;9.67;;;;;;;;;;5080853;28;20234;-61
2023/03/07 04:27:37;;;;;;;16.23;9.90;;;;;;;;;;5080817;28;20212;-62
2023/03/07 04:30:07;;;;;;;17.37;10.17;;;;;;;;;;5080475;28;20589;-61
2023/03/07 04:32:35;;;;;;;18.93;10.20;;;;;;;;;;5080646;28;20237;-61
2023/03/07 04:35:03;;;;;;;14.57;9.23;;;;;;;;;;5080784;28;20256;-62
2023/03/07 04:37:31;;;;;;;15.83;10.13;;;;;;;;;;5076734;28;20226;-62
2023/03/07 04:39:59;;;;;;;17.67;11.13;;;;;;;;;;5080177;28;20249;-62
2023/03/07 04:42:27;;;;;;;16.80;10.23;;;;;;;;;;5080154;28;20579;-61
2023/03/07 04:44:55;;;;;;;22.50;10.83;;;;;;;;;;5080284;28;20214;-62
2023/03/07 04:47:24;;;;;;;23.00;11.47;;;;;;;;;;5079378;28;20198;-62
2023/03/07 04:49:52;;;;;;;21.43;10.67;;;;;;;;;;5079915;28;20222;-62
2023/03/07 04:52:20;;;;;;;15.63;9.77;;;;;;;;;;5079954;28;20218;-62
2023/03/07 04:54:48;;;;;;;21.50;11.63;;;;;;;;;;5079854;28;20323;-61
2023/03/07 04:57:16;;;;;;;21.30;11.37;;;;;;;;;;5079836;28;20545;-62
2023/03/07 04:59:44;;;;;;;19.03;10.43;;;;;;;;;;5079788;28;20217;-61
2023/03/07 05:02:12;;;;;;;19.27;11.60;;;;;;;;;;5079859;28;20206;-62
2023/03/07 05:04:42;;;;;;;20.90;12.03;;;;;;;;;;5079483;28;20673;-61
2023/03/07 05:07:10;;;;;;;19.00;11.57;;;;;;;;;;5079319;28;20271;-62
2023/03/07 05:09:38;;;;;;;16.93;11.00;;;;;;;;;;5079743;28;20751;-62
2023/03/07 05:12:06;;;;;;;20.97;11.07;;;;;;;;;;5079625;28;20642;-61
2023/03/07 05:14:34;;;;;;;17.00;10.80;;;;;;;;;;5079779;28;20642;-62
2023/03/07 05:17:02;;;;;;;17.43;10.70;;;;;;;;;;5079739;28;20448;-61
2023/03/07 05:19:30;;;;;;;17.37;10.67;;;;;;;;;;5079519;28;20460;-61
2023/03/07 05:22:00;;;;;;;16.83;10.83;;;;;;;;;;5079313;28;20450;-61
2023/03/07 05:24:27;;;;;;;22.37;11.27;;;;;;;;;;5079503;28;20440;-62
2023/03/07 05:26:55;;;;;;;17.93;10.57;;;;;;;;;;5079657;28;20457;-62
2023/03/07 05:29:23;;;;;;;20.70;11.23;;;;;;;;;;5079586;28;20464;-60
2023/03/07 05:31:51;;;;;;;17.63;10.60;;;;;;;;;;5079261;28;20448;-59
2023/03/07 05:34:19;;;;;;;21.07;10.70;;;;;;;;;;5079471;28;20230;-59
2023/03/07 05:36:47;;;;;;;18.43;10.67;;;;;;;;;;5079063;28;20868;-60
2023/03/07 05:39:17;;;;;;;17.73;10.83;;;;;;;;;;5079226;28;20464;-60
2023/03/07 05:41:45;;;;;;;19.97;11.30;;;;;;;;;;5079315;28;20209;-62
2023/03/07 05:44:13;;;;;;;17.77;11.07;;;;;;;;;;5078938;28;20441;-62
2023/03/07 05:46:41;;;;;;;16.27;10.27;;;;;;;;;;5078910;28;20978;-62
2023/03/07 05:49:08;;;;;;;20.27;11.13;;;;;;;;;;5079163;28;20245;-61
2023/03/07 05:51:36;;;;;;;16.57;10.63;;;;;;;;;;5078943;28;20468;-61
2023/03/07 05:54:04;;;;;;;19.67;9.80;;;;;;;;;;5078743;28;20484;-61
2023/03/07 05:56:34;;;;;;;15.13;10.17;;;;;;;;;;5079004;28;20445;-61
2023/03/07 05:59:02;;;;;;;19.33;10.37;;;;;;;;;;5077856;28;20449;-61
2023/03/07 06:01:30;;;;;;;17.23;10.73;;;;;;;;;;5078397;28;20444;-61
2023/03/07 06:03:58;;;;;;;20.13;10.60;;;;;;;;;;5078617;28;20959;-62
2023/03/07 06:06:26;;;;;;;17.23;10.10;;;;;;;;;;5078369;28;20501;-62
2023/03/07 06:08:53;;;;;;;20.40;12.20;;;;;;;;;;5078409;28;20480;-61
2023/03/07 06:11:21;;;;;;;18.07;10.33;;;;;;;;;;5078613;28;20444;-61
2023/03/07 06:13:51;;;;;;;17.87;10.87;;;;;;;;;;5078401;28;20535;-61
2023/03/07 06:16:19;;;;;;;17.37;10.27;;;;;;;;;;5078390;28;20450;-61
2023/03/07 06:18:47;;;;;;;17.90;11.30;;;;;;;;;;5078758;28;20206;-61
2023/03/07 06:21:16;;;;;;;18.90;10.13;;;;;;;;;;5077992;28;20214;-62
2023/03/07 06:23:43;;;;;;;19.00;10.90;;;;;;;;;;5078975;28;20440;-61
2023/03/07 06:26:12;;;;;;;21.60;11.67;;;;;;;;;;5076326;28;20483;-61
2023/03/07 06:28:40;;;;;;;18.27;10.80;;;;;;;;;;5079662;28;20451;-62
2023/03/07 06:31:11;;;;;;;16.27;11.10;;;;;;;;;;5077749;28;20225;-62
2023/03/07 06:33:39;;;;;;;16.03;10.10;;;;;;;;;;5078449;28;20506;-62
2023/03/07 06:36:08;;;;;;;16.90;10.37;;;;;;;;;;5077955;28;20217;-62
2023/03/07 06:38:36;;;;;;;21.43;11.37;;;;;;;;;;5080694;28;20253;-62
2023/03/07 06:41:04;;;;;;;17.33;11.67;;;;;;;;;;5075861;28;20253;-62
2023/03/07 06:43:32;;;;;;;24.00;11.67;;;;;;;;;;5078908;28;20457;-61
2023/03/07 06:46:00;;;;;;;19.57;10.63;;;;;;;;;;5077861;28;20441;-61
2023/03/07 06:48:29;;;;;;;24.87;10.10;;;;;;;;;;5077911;28;20289;-61
2023/03/07 06:50:58;;;;;;;18.77;10.57;;;;;;;;;;5077740;28;20234;-62
2023/03/07 06:53:26;;;;;;;21.30;11.33;;;;;;;;;;5077751;28;20261;-62
2023/03/07 06:55:53;;;;;;;16.80;10.80;;;;;;;;;;5078013;28;20206;-62
2023/03/07 06:58:21;;;;;;;18.60;10.03;;;;;;;;;;5078141;28;20288;-62
2023/03/07 07:00:49;;;;;;;18.83;10.83;;;;;;;;;;5077483;28;20257;-61
2023/03/07 07:03:18;;;;;;;16.43;10.53;;;;;;;;;;5077353;28;20198;-62
2023/03/07 07:05:47;;;;;;;21.80;11.20;;;;;;;;;;5078036;28;20235;-61
2023/03/07 07:08:15;;;;;;;20.20;11.37;;;;;;;;;;5075874;28;20226;-62
2023/03/07 07:10:43;;;;;;;17.70;10.47;;;;;;;;;;5078642;28;20217;-61
2023/03/07 07:13:12;;;;;;;18.57;11.17;;;;;;;;;;5077369;28;20206;-62
2023/03/07 07:15:40;;;;;;;19.20;10.67;;;;;;;;;;5080110;28;20669;-61
2023/03/07 07:18:08;;;;;;;20.13;11.93;;;;;;;;;;5077432;28;20210;-62
2023/03/07 07:20:38;;;;;;;17.67;11.10;;;;;;;;;;5078299;28;20260;-61
2023/03/07 07:23:07;;;;;;;17.70;10.77;;;;;;;;;;5078843;28;20202;-63
2023/03/07 07:25:35;;;;;;;17.97;10.90;;;;;;;;;;5079204;28;20238;-62
2023/03/07 07:28:03;;;;;;;17.97;11.27;;;;;;;;;;5077291;28;20558;-62
2023/03/07 07:30:31;;;;;;;22.67;10.93;;;;;;;;;;5077497;28;20214;-62
2023/03/07 07:32:59;;;;;;;18.77;11.07;;;;;;;;;;5077144;28;20226;-62
2023/03/07 07:35:27;;;;;;;18.63;11.00;;;;;;;;;;5078006;28;20218;-62
2023/03/07 07:37:55;;;;;;;19.60;12.13;;;;;;;;;;5072945;28;20267;-62
2023/03/07 07:40:25;;;;;;;19.23;11.13;;;;;;;;;;5077716;28;20218;-63
2023/03/07 07:42:53;;;;;;;22.50;12.13;;;;;;;;;;5076950;28;20277;-63
2023/03/07 07:45:21;;;;;;;22.47;11.77;;;;;;;;;;5075205;28;20203;-62
2023/03/07 07:47:49;;;;;;;21.43;11.77;;;;;;;;;;5085815;28;20626;-62
2023/03/07 07:50:18;;;;;;;17.50;11.23;;;;;;;;;;5076814;28;20307;-61
2023/03/07 07:52:46;;;;;;;21.30;13.47;;;;;;;;;;5075041;28;20206;-62
2023/03/07 07:55:14;;;;;;;21.67;13.23;;;;;;;;;;5077920;28;20647;-61
2023/03/07 07:57:44;;;;;;;21.57;12.97;;;;;;;;;;5083214;28;20206;-62
2023/03/07 08:00:13;;;;;;;34.47;13.00;;;;;;;;;;5081256;28;20272;-62
2023/03/07 08:02:40;;;;;;;20.47;12.77;;;;;;;;;;5077880;28;20262;-62
2023/03/07 08:05:09;;;;;;;23.67;12.90;;;;;;;;;;5076423;28;20673;-63
2023/03/07 08:07:37;;;;;;;22.93;12.40;;;;;;;;;;5077491;28;20519;-64
2023/03/07 08:10:06;;;;;;;19.13;11.83;;;;;;;;;;5077197;28;20355;-64
2023/03/07 08:12:33;;;;;;;23.53;12.77;;;;;;;;;;5077192;28;20206;-64
2023/03/07 08:15:03;;;;;;;24.87;13.60;;;;;;;;;;5076973;28;20262;-64
2023/03/07 08:17:31;;;;;;;34.60;17.37;;;;;;;;;;5071510;28;20305;-64
2023/03/07 08:20:03;;;;;;;25.10;13.77;;;;;;;;;;5069934;28;20229;-64
2023/03/07 08:22:32;;;;;;;27.03;14.73;;;;;;;;;;5076764;28;20673;-61
2023/03/07 08:25:00;;;;;;;23.30;13.67;;;;;;;;;;5085648;28;20226;-62
2023/03/07 08:27:28;;;;;;;23.40;13.73;;;;;;;;;;5088119;28;20648;-62
2023/03/07 08:29:56;;;;;;;25.80;14.57;;;;;;;;;;5089952;28;20461;-62
2023/03/07 08:32:25;;;;;;;47.17;18.37;;;;;;;;;;5085712;28;20440;-62
2023/03/07 08:34:53;;;;;;;28.37;14.63;;;;;;;;;;5080397;28;20225;-62
2023/03/07 08:37:21;;;;;;;21.37;13.10;;;;;;;;;;5075302;28;20455;-62
2023/03/07 08:39:49;;;;;;;26.47;14.27;;;;;;;;;;5078053;28;20514;-62
2023/03/07 08:42:17;;;;;;;29.23;15.13;;;;;;;;;;5079462;28;20198;-62
2023/03/07 08:44:45;;;;;;;24.77;14.17;;;;;;;;;;5080744;28;20206;-62
2023/03/07 08:47:13;;;;;;;23.37;13.87;;;;;;;;;;5087103;28;20432;-62
2023/03/07 08:49:42;;;;;;;23.63;13.30;;;;;;;;;;5089630;28;20461;-62
2023/03/07 08:52:10;;;;;;;25.87;13.37;;;;;;;;;;5086950;28;20452;-62
2023/03/07 08:54:38;;;;;;;21.47;13.03;;;;;;;;;;5086531;28;20249;-62
2023/03/07 08:57:06;;;;;;;29.00;12.93;;;;;;;;;;5083920;28;20198;-62
2023/03/07 08:59:34;;;;;;;23.37;12.17;;;;;;;;;;5089500;28;20256;-62
2023/03/07 09:02:02;;;;;;;24.77;12.90;;;;;;;;;;5087425;28;20198;-61
2023/03/07 09:04:30;;;;;;;20.63;13.03;;;;;;;;;;5086085;28;20198;-62
2023/03/07 09:07:00;;;;;;;18.50;12.93;;;;;;;;;;5088158;28;20317;-61
2023/03/07 09:09:28;;;;;;;20.77;12.67;;;;;;;;;;5089403;28;20511;-62
2023/03/07 09:11:57;;;;;;;22.60;13.37;;;;;;;;;;5088642;28;20231;-62
2023/03/07 09:14:27;;;;;;;23.20;12.80;;;;;;;;;;5087441;28;20576;-62
2023/03/07 09:16:55;;;;;;;18.53;12.07;;;;;;;;;;5088818;28;20201;-62
2023/03/07 09:19:23;;;;;;;17.57;11.47;;;;;;;;;;5089002;28;20222;-62
2023/03/07 09:21:54;;;;;;;19.87;13.03;;;;;;;;;;5084888;28;20657;-62
2023/03/07 09:24:23;;;;;;;25.10;12.33;;;;;;;;;;5087958;28;20206;-62
2023/03/07 09:26:51;;;;;;;20.43;11.93;;;;;;;;;;5084703;28;20206;-62
2023/03/07 09:29:19;;;;;;;19.40;12.87;;;;;;;;;;5088246;28;20271;-62
2023/03/07 09:31:47;;;;;;;22.60;11.80;;;;;;;;;;5089215;28;20681;-62
2023/03/07 09:34:16;;;;;;;26.20;13.50;;;;;;;;;;5087493;28;20470;-63
2023/03/07 09:36:43;;;;;;;27.03;12.33;;;;;;;;;;5087426;28;20224;-63
2023/03/07 09:39:13;;;;;;;19.53;11.87;;;;;;;;;;5080868;28;20209;-63
2023/03/07 09:41:59;;;;;;;15.83;10.97;;;;;;;;;;5080286;28;20198;-62
2023/03/07 09:44:33;;;;;;;19.10;10.87;;;;;;;;;;5077942;28;20208;-62
2023/03/07 09:47:09;;;;;;;20.87;11.80;;;;;;;;;;5079566;28;20202;-62
2023/03/07 09:49:40;;;;;;;21.23;12.23;;;;;;;;;;5079240;28;20228;-62
2023/03/07 09:52:11;;;;;;;19.57;10.87;;;;;;;;;;5082703;28;20285;-61
2023/03/07 09:54:41;;;;;;;17.20;10.77;;;;;;;;;;5088929;28;20289;-62
2023/03/07 09:57:13;;;;;;;16.83;10.60;;;;;;;;;;5088082;28;20209;-62
2023/03/07 09:59:45;;;;;;;19.03;10.93;;;;;;;;;;5088676;28;20248;-63
2023/03/07 10:02:16;;;;;;;20.43;10.53;;;;;;;;;;5088002;28;20198;-62
2023/03/07 10:04:47;;;;;;;18.30;10.40;;;;;;;;;;5086784;28;20204;-63
2023/03/07 10:07:15;;;;;;;17.67;10.50;;;;;;;;;;5086819;28;20228;-62
2023/03/07 10:09:47;;;;;;;14.00;9.83;;;;;;;;;;5088486;28;20237;-63
2023/03/07 10:12:22;;;;;;;15.30;10.10;;;;;;;;;;5088021;28;20194;-62
2023/03/07 10:14:57;;;;;;;18.10;10.23;;;;;;;;;;5085107;28;20608;-62
2023/03/07 10:17:31;;;;;;;25.50;9.70;;;;;;;;;;5086633;28;20216;-62
2023/03/07 10:20:01;;;;;;;16.17;10.10;;;;;;;;;;5088435;28;20249;-62
2023/03/07 10:22:33;;;;;;;15.87;10.37;;;;;;;;;;5084445;28;20275;-62
2023/03/07 10:25:06;;;;;;;16.23;10.43;;;;;;;;;;5085882;28;20224;-61
2023/03/07 10:27:36;;;;;;;16.40;10.17;;;;;;;;;;5086990;28;20233;-62
2023/03/07 10:30:10;;;;;;;13.87;8.90;;;;;;;;;;5088221;28;20229;-62
2023/03/07 10:32:39;;;;;;;15.83;9.10;;;;;;;;;;5087689;28;20311;-63
2023/03/07 10:35:14;;;;;;;17.50;10.30;;;;;;;;;;5083973;28;20252;-63
2023/03/07 10:37:49;;;;;;;14.03;9.27;;;;;;;;;;5088187;28;20203;-62
2023/03/07 10:40:26;;;;;;;13.90;9.67;;;;;;;;;;5081894;28;20263;-61
2023/03/07 10:42:56;;;;;;;17.07;9.43;;;;;;;;;;5078986;28;20208;-61
2023/03/07 10:45:29;;;;;;;14.97;9.40;;;;;;;;;;5075323;28;20222;-61
2023/03/07 10:47:58;;;;;;;17.80;10.40;;;;;;;;;;5080070;28;20211;-61
2023/03/07 10:50:35;;;;;;;17.53;9.57;;;;;;;;;;5077651;28;20218;-61
2023/03/07 10:53:04;;;;;;;13.93;9.53;;;;;;;;;;5076943;28;20220;-61
2023/03/07 10:55:33;;;;;;;15.83;8.70;;;;;;;;;;5077158;28;20249;-62
2023/03/07 10:58:16;;;;;;;20.87;10.90;;;;;;;;;;5079262;28;20286;-61
2023/03/07 11:00:44;;;;;;;17.57;10.13;;;;;;;;;;5074967;28;20222;-61
2023/03/07 11:03:23;;;;;;;16.13;10.17;;;;;;;;;;5079738;28;20205;-61
2023/03/07 11:05:51;;;;;;;17.60;10.10;;;;;;;;;;5084514;28;20190;-62
2023/03/07 11:08:37;;;;;;;19.03;10.33;;;;;;;;;;5078925;28;20279;-62
2023/03/07 11:11:05;;;;;;;18.63;10.37;;;;;;;;;;5077693;28;20732;-61
2023/03/07 11:13:34;;;;;;;19.53;10.13;;;;;;;;;;5077671;28;20210;-60
2023/03/07 11:16:10;;;;;;;21.13;10.83;;;;;;;;;;5077329;28;20234;-60
2023/03/07 11:18:40;;;;;;;18.67;10.23;;;;;;;;;;5077558;28;20210;-60
2023/03/07 11:21:25;;;;;;;18.23;10.43;;;;;;;;;;5077267;28;20265;-60
2023/03/07 11:23:58;;;;;;;19.93;10.37;;;;;;;;;;5076801;28;20237;-60
2023/03/07 11:26:26;;;;;;;21.97;11.23;;;;;;;;;;5081866;28;20228;-60
2023/03/07 11:29:06;;;;;;;22.53;10.97;;;;;;;;;;5086145;28;20198;-60
2023/03/07 11:31:36;;;;;;;18.00;11.03;;;;;;;;;;5082527;28;20198;-60
2023/03/07 11:34:08;;;;;;;18.07;9.73;;;;;;;;;;5076481;28;20239;-61
2023/03/07 11:36:36;;;;;;;14.87;9.43;;;;;;;;;;5079854;28;20222;-60
2023/03/07 11:39:08;;;;;;;18.93;8.90;;;;;;;;;;5077117;28;20198;-61
2023/03/07 11:41:37;;;;;;;15.83;9.73;;;;;;;;;;5078512;28;20281;-60
2023/03/07 11:44:11;;;;;;;18.30;9.97;;;;;;;;;;5077231;28;20205;-60
2023/03/07 11:46:44;;;;;;;15.53;8.97;;;;;;;;;;5077686;28;20225;-60
2023/03/07 11:49:20;;;;;;;15.07;9.53;;;;;;;;;;5076981;28;20199;-60
2023/03/07 11:51:54;;;;;;;13.23;9.37;;;;;;;;;;5075518;28;20194;-60
2023/03/07 11:54:29;;;;;;;18.17;9.77;;;;;;;;;;5075361;28;20677;-60
2023/03/07 11:57:00;;;;;;;16.00;9.43;;;;;;;;;;5078167;28;20226;-60
2023/03/07 11:59:49;;;;;;;15.47;9.57;;;;;;;;;;5084930;28;20217;-61
2023/03/07 12:02:29;;;;;;;15.50;9.10;;;;;;;;;;5067254;28;20230;-60
2023/03/07 12:05:10;;;;;;;14.37;8.40;;;;;;;;;;5079346;28;20339;-60
2023/03/07 12:07:56;;;;;;;14.73;9.77;;;;;;;;;;5081650;28;20230;-61
2023/03/07 12:10:31;;;;;;;14.90;10.13;;;;;;;;;;5071075;28;20222;-61
2023/03/07 12:13:05;;;;;;;16.37;9.53;;;;;;;;;;5080853;28;20198;-61
2023/03/07 12:15:36;;;;;;;15.37;9.57;;;;;;;;;;5079719;28;20218;-60
2023/03/07 12:18:12;;;;;;;15.83;9.47;;;;;;;;;;5081948;28;20639;-60
2023/03/07 12:20:47;;;;;;;17.33;9.27;;;;;;;;;;5082892;28;20213;-60
2023/03/07 12:23:18;;;;;;;15.83;10.07;;;;;;;;;;5076392;28;20194;-60
2023/03/07 12:25:47;;;;;;;15.53;9.80;;;;;;;;;;5081231;28;20203;-60
2023/03/07 12:28:21;;;;;;;14.87;9.37;;;;;;;;;;5080653;28;20209;-60
2023/03/07 12:30:55;;;;;;;16.33;9.47;;;;;;;;;;5077719;28;20222;-60
2023/03/07 12:33:28;;;;;;;14.37;9.10;;;;;;;;;;5082465;28;20289;-60
2023/03/07 12:35:58;;;;;;;12.03;8.73;;;;;;;;;;5080204;28;20233;-61
2023/03/07 12:38:31;;;;;;;19.23;9.47;;;;;;;;;;5080604;28;20218;-59
2023/03/07 12:41:01;;;;;;;18.27;9.87;;;;;;;;;;5079710;28;20222;-59
2023/03/07 12:43:33;;;;;;;15.87;9.90;;;;;;;;;;5081966;28;20226;-60
2023/03/07 12:46:05;;;;;;;15.07;10.20;;;;;;;;;;5080034;28;20213;-60
2023/03/07 12:48:39;;;;;;;16.90;9.97;;;;;;;;;;5077896;28;20280;-60
2023/03/07 12:51:09;;;;;;;17.83;10.40;;;;;;;;;;5080396;28;20245;-59
2023/03/07 12:53:38;;;;;;;15.77;9.77;;;;;;;;;;5081388;28;20666;-60
2023/03/07 12:56:11;;;;;;;16.53;9.30;;;;;;;;;;5079081;28;20691;-61
2023/03/07 12:58:42;;;;;;;19.83;9.83;;;;;;;;;;5079696;28;20229;-61
2023/03/07 13:01:13;;;;;;;14.10;9.20;;;;;;;;;;5079354;28;20666;-61
2023/03/07 13:03:46;;;;;;;14.10;9.63;;;;;;;;;;5079907;28;20377;-61
2023/03/07 13:06:16;;;;;;;17.20;9.73;;;;;;;;;;5079955;28;20217;-61
2023/03/07 13:08:46;;;;;;;17.20;9.90;;;;;;;;;;5079035;28;20238;-61
2023/03/07 13:11:18;;;;;;;15.90;9.17;;;;;;;;;;5079856;28;20253;-61
2023/03/07 13:13:50;;;;;;;15.87;9.73;;;;;;;;;;5079471;28;20638;-61
2023/03/07 13:16:33;;;;;;;15.00;9.73;;;;;;;;;;5079776;28;20245;-61
2023/03/07 13:19:20;;;;;;;15.20;9.80;;;;;;;;;;5077312;28;20689;-61
2023/03/07 13:21:49;;;;;;;13.20;9.13;;;;;;;;;;5079437;28;20212;-61
2023/03/07 13:24:34;;;;;;;22.67;10.50;;;;;;;;;;5079479;28;20576;-61
2023/03/07 13:27:03;;;;;;;13.27;8.63;;;;;;;;;;5079963;28;20205;-61
2023/03/07 13:29:49;;;;;;;13.60;8.97;;;;;;;;;;5079721;28;20236;-61
2023/03/07 13:32:32;;;;;;;16.37;9.33;;;;;;;;;;5079445;28;20289;-62
2023/03/07 13:35:00;;;;;;;16.40;9.03;;;;;;;;;;5079084;28;20225;-62
2023/03/07 13:37:45;;;;;;;18.00;9.63;;;;;;;;;;5079058;28;20226;-62
2023/03/07 13:40:34;;;;;;;16.40;10.23;;;;;;;;;;5078760;28;20581;-61
2023/03/07 13:43:05;;;;;;;18.07;9.70;;;;;;;;;;5076795;28;20214;-62
2023/03/07 13:45:49;;;;;;;17.97;10.20;;;;;;;;;;5080443;28;20206;-61
2023/03/07 13:48:35;;;;;;;16.57;9.77;;;;;;;;;;5081234;28;20194;-61
2023/03/07 13:51:07;;;;;;;18.87;10.40;;;;;;;;;;5076520;28;20261;-62
2023/03/07 13:53:36;;;;;;;16.87;11.03;;;;;;;;;;5078522;28;20194;-62
2023/03/07 13:56:09;;;;;;;16.87;10.27;;;;;;;;;;5073694;28;20557;-62
2023/03/07 13:58:43;;;;;;;18.23;10.20;;;;;;;;;;5078184;28;20313;-61
2023/03/07 14:01:13;;;;;;;22.03;10.57;;;;;;;;;;5078384;28;20230;-62
2023/03/07 14:03:44;;;;;;;17.53;10.03;;;;;;;;;;5078757;28;20263;-61
2023/03/07 14:06:15;;;;;;;18.23;10.20;;;;;;;;;;5078689;28;20202;-63
2023/03/07 14:08:44;;;;;;;19.30;10.67;;;;;;;;;;5078425;28;20230;-62
2023/03/07 14:11:16;;;;;;;15.47;10.43;;;;;;;;;;5078385;28;20732;-62
2023/03/07 14:13:51;;;;;;;17.87;10.97;;;;;;;;;;5075753;28;20637;-62
2023/03/07 14:16:29;;;;;;;20.40;10.33;;;;;;;;;;5078287;28;20728;-62
2023/03/07 14:19:10;;;;;;;15.33;9.57;;;;;;;;;;5078475;28;20222;-62
2023/03/07 14:21:44;;;;;;;17.40;10.10;;;;;;;;;;5077228;28;20213;-62
2023/03/07 14:24:27;;;;;;;18.13;10.50;;;;;;;;;;5078276;28;20695;-62
2023/03/07 14:26:56;;;;;;;14.13;9.80;;;;;;;;;;5095846;28;20675;-61
2023/03/07 14:29:26;;;;;;;14.33;9.50;;;;;;;;;;5083380;28;20314;-63
2023/03/07 14:31:55;;;;;;;15.03;8.50;;;;;;;;;;5074979;28;20288;-62
2023/03/07 14:34:26;;;;;;;17.43;9.40;;;;;;;;;;5078415;28;20213;-62
2023/03/07 14:36:55;;;;;;;13.17;9.00;;;;;;;;;;5078121;28;20214;-61
2023/03/07 14:39:24;;;;;;;14.67;9.13;;;;;;;;;;5077940;28;20282;-62
2023/03/07 14:41:59;;;;;;;15.67;10.23;;;;;;;;;;5077781;28;20729;-62